Hauptseite
METAR-TAF:

METAR-TAF

Flughäfen :

Flughafen Kopenhagen-Kastrup

Kopenhagen, Dänemark

Breite: 55-37N, Länge: 012-39E, Höhe: 5 m

Beobachtung

Neuester Wetterbericht von vor 31 Minuten, um 18:20 UTC
Wind 11 kt aus Süd/Südost
Temperatur 8°C
Luftfeuchtigkeit 76%
Luftdruck 1037 hPa
Sichtweite 10 km oder mehr
keine Wolken unter 1500 m und keine Kumulonimbus oder Gewitterwolken

METAR: EKCH 161820Z 15011KT CAVOK 08/04 Q1037 NOSIG

Zeit: 19:51 (18:51 UTC)

Prognose

Neuester Wetterbericht von vor 1 Stunde und 46 Minuten, um 17:05 UTC
Gültige Prognose vom 16 um 18 UTC bis 17 um 18 UTC
Wind 14 kt aus Süd/Südost
Sichtweite 10 km oder mehr
keine Wolken unter 1500 m und keine Kumulonimbus oder Gewitterwolken
Zeitweise
vom 16 um 21 UTC bis 17 um 08 UTC
Durchbrochene Bewölkung in der Höhe von 1200 ft

TAF: EKCH 161705Z 1618/1718 16014KT CAVOK TEMPO 1621/1708 BKN012

Wetterbeobachtungen und Prognosen von mehr als 4000 Flughäfen (METAR und TAF Bericht).

Die verfügbaren Stationen werden durch gelbe und rote Markierungen auf der Karte dargestellt.

Führen Sie die Maus auf sie, um den Namen der Station zu sehen.

Darauf klicken, um die Beobachtung von Wetterbeobachtungen und Prognosen zu sehen.

Um die Karte zu ändern : klicken Sie auf den grünen Tasten mit einem schwarzen Kreuz Zum Vergrößern, auf den grünen Button mit einem Gedankenstrich zu verkleinern, oder auf die grünen Pfeile für benachbarte Karten.


METAR-TAF: